createdAt,value
2022-12-01T00:02:01.326Z,18.63
2022-12-01T00:04:28.327Z,18.10
2022-12-01T00:06:56.538Z,17.65
2022-12-01T00:09:23.408Z,17.35
2022-12-01T00:11:50.069Z,18.92
2022-12-01T00:14:16.870Z,18.63
2022-12-01T00:16:43.633Z,17.60
2022-12-01T00:19:10.381Z,18.95
2022-12-01T00:21:37.079Z,17.17
2022-12-01T00:24:06.868Z,16.73
2022-12-01T00:26:33.572Z,18.38
2022-12-01T00:29:00.236Z,16.50
2022-12-01T00:31:27.329Z,15.90
2022-12-01T00:33:54.290Z,16.40
2022-12-01T00:36:21.415Z,17.00
2022-12-01T00:38:50.991Z,17.25
2022-12-01T00:41:19.149Z,17.30
2022-12-01T00:43:45.865Z,14.70
2022-12-01T00:46:12.687Z,15.40
2022-12-01T00:48:39.467Z,16.58
2022-12-01T00:51:06.357Z,18.50
2022-12-01T00:53:33.088Z,17.63
2022-12-01T00:56:00.094Z,16.17
2022-12-01T00:58:28.185Z,16.13
2022-12-01T01:00:57.866Z,15.13
2022-12-01T01:03:24.836Z,15.15
2022-12-01T01:05:51.524Z,16.48
2022-12-01T01:08:18.232Z,16.48
2022-12-01T01:10:46.894Z,15.88
2022-12-01T01:13:14.574Z,17.63
2022-12-01T01:15:42.651Z,16.60
2022-12-01T01:18:11.223Z,18.20
2022-12-01T01:20:37.935Z,18.67
2022-12-01T01:23:04.749Z,18.20
2022-12-01T01:25:32.574Z,19.48
2022-12-01T01:27:59.324Z,20.90
2022-12-01T01:30:26.097Z,17.58
2022-12-01T01:32:54.206Z,18.45
2022-12-01T01:35:20.900Z,18.85
2022-12-01T01:37:47.638Z,18.23
2022-12-01T01:40:14.360Z,19.77
2022-12-01T01:42:41.023Z,17.58
2022-12-01T01:45:20.115Z,17.27
2022-12-01T01:47:48.940Z,17.65
2022-12-01T01:50:20.601Z,16.85
2022-12-01T01:52:51.536Z,15.10
2022-12-01T01:55:18.662Z,19.75
2022-12-01T01:57:45.892Z,18.15
2022-12-01T02:00:15.521Z,17.38
2022-12-01T02:02:44.202Z,16.20
2022-12-01T02:05:15.687Z,14.35
2022-12-01T02:07:44.175Z,18.50
2022-12-01T02:10:14.467Z,17.73
2022-12-01T02:12:55.290Z,17.05
2022-12-01T02:15:31.641Z,16.50
2022-12-01T02:18:12.853Z,16.70
2022-12-01T02:21:04.662Z,17.42
2022-12-01T02:24:07.205Z,16.33
2022-12-01T02:26:45.312Z,18.83
2022-12-01T02:29:51.617Z,16.90
2022-12-01T02:32:27.124Z,18.08
2022-12-01T02:34:58.424Z,16.48
2022-12-01T02:37:31.709Z,17.10
2022-12-01T02:40:07.524Z,18.33
2022-12-01T02:42:42.546Z,18.50
2022-12-01T02:45:13.547Z,16.77
2022-12-01T02:47:44.653Z,19.05
2022-12-01T02:50:12.612Z,17.02
2022-12-01T02:52:40.854Z,20.00
2022-12-01T02:55:08.292Z,19.38
2022-12-01T02:57:35.155Z,17.92
2022-12-01T03:00:02.520Z,15.65
2022-12-01T03:02:35.466Z,18.00
2022-12-01T03:05:09.933Z,15.65
2022-12-01T03:07:47.331Z,19.85
2022-12-01T03:10:20.489Z,18.42
2022-12-01T03:12:59.211Z,20.30
2022-12-01T03:15:33.083Z,18.05
2022-12-01T03:18:09.279Z,19.20
2022-12-01T03:20:42.456Z,17.20
2022-12-01T03:23:13.151Z,19.02
2022-12-01T03:25:43.230Z,18.90
2022-12-01T03:28:21.189Z,17.48
2022-12-01T03:30:50.761Z,15.88
2022-12-01T03:33:23.115Z,17.65
2022-12-01T03:35:54.885Z,19.15
2022-12-01T03:38:24.792Z,13.48
2022-12-01T03:40:56.592Z,18.27
2022-12-01T03:43:27.889Z,21.05
2022-12-01T03:46:00.120Z,19.42
2022-12-01T03:48:27.492Z,18.58
2022-12-01T03:51:10.620Z,18.60
2022-12-01T03:53:44.449Z,16.00
2022-12-01T03:56:13.725Z,21.90
2022-12-01T03:58:44.692Z,18.70
2022-12-01T04:01:12.352Z,20.98
2022-12-01T04:03:39.178Z,20.67
2022-12-01T04:06:07.916Z,19.75
2022-12-01T04:08:34.871Z,20.65
2022-12-01T04:11:01.615Z,18.95
2022-12-01T04:13:28.290Z,19.17
2022-12-01T04:15:55.291Z,21.98
2022-12-01T04:18:22.318Z,19.75
2022-12-01T04:20:49.901Z,19.10
2022-12-01T04:23:17.933Z,18.35
2022-12-01T04:25:44.603Z,18.75
2022-12-01T04:28:11.273Z,19.45
2022-12-01T04:30:37.943Z,21.70
2022-12-01T04:33:04.650Z,18.98
2022-12-01T04:35:31.344Z,19.05
2022-12-01T04:37:59.034Z,19.25
2022-12-01T04:40:27.144Z,19.48
2022-12-01T04:42:53.845Z,19.47
2022-12-01T04:45:20.620Z,21.50
2022-12-01T04:47:47.536Z,16.40
2022-12-01T04:50:14.358Z,16.98
2022-12-01T04:52:41.019Z,19.98
2022-12-01T04:55:08.318Z,20.55
2022-12-01T04:57:36.509Z,19.77
2022-12-01T05:00:03.989Z,20.33
2022-12-01T05:02:30.867Z,17.92
2022-12-01T05:04:57.657Z,21.02
2022-12-01T05:07:24.406Z,18.48
2022-12-01T05:09:51.270Z,20.00
2022-12-01T05:12:18.438Z,19.27
2022-12-01T05:14:46.642Z,17.67
2022-12-01T05:17:13.352Z,19.58
2022-12-01T05:19:40.029Z,19.20
2022-12-01T05:22:06.783Z,20.02
2022-12-01T05:24:33.496Z,19.75
2022-12-01T05:27:00.209Z,16.67
2022-12-01T05:29:26.975Z,20.65
2022-12-01T05:31:55.096Z,19.85
2022-12-01T05:34:21.926Z,20.17
2022-12-01T05:36:48.651Z,18.05
2022-12-01T05:39:15.496Z,20.50
2022-12-01T05:41:42.215Z,19.38
2022-12-01T05:44:08.890Z,19.15
2022-12-01T05:46:35.561Z,20.55
2022-12-01T05:49:03.601Z,18.50
2022-12-01T05:51:30.256Z,18.73
2022-12-01T05:53:59.872Z,18.05
2022-12-01T05:56:26.619Z,19.00
2022-12-01T05:58:53.344Z,20.35
2022-12-01T06:01:20.054Z,17.85
2022-12-01T06:03:46.834Z,19.00
2022-12-01T06:06:14.896Z,19.30
2022-12-01T06:08:41.630Z,17.85
2022-12-01T06:11:08.351Z,18.38
2022-12-01T06:13:35.025Z,17.58
2022-12-01T06:16:03.938Z,18.27
2022-12-01T06:18:32.259Z,17.63
2022-12-01T06:20:59.008Z,19.80
2022-12-01T06:23:30.357Z,18.85
2022-12-01T06:25:57.825Z,19.42
2022-12-01T06:28:24.611Z,16.15
2022-12-01T06:30:51.321Z,17.85
2022-12-01T06:33:18.014Z,19.55
2022-12-01T06:35:44.741Z,19.00
2022-12-01T06:38:11.441Z,20.02
2022-12-01T06:40:39.504Z,19.48
2022-12-01T06:43:06.226Z,18.93
2022-12-01T06:45:32.976Z,19.80
2022-12-01T06:47:59.726Z,17.80
2022-12-01T06:50:26.482Z,17.88
2022-12-01T06:52:53.194Z,17.70
2022-12-01T06:55:19.953Z,17.65
2022-12-01T06:57:48.201Z,18.15
2022-12-01T07:00:16.072Z,19.48
2022-12-01T07:02:43.031Z,19.17
2022-12-01T07:05:10.239Z,20.42
2022-12-01T07:07:37.502Z,19.95
2022-12-01T07:10:04.850Z,20.33
2022-12-01T07:12:31.866Z,15.73
2022-12-01T07:15:00.117Z,16.50
2022-12-01T07:17:26.858Z,19.70
2022-12-01T07:19:53.675Z,16.27
2022-12-01T07:22:20.391Z,19.77
2022-12-01T07:24:47.332Z,19.60
2022-12-01T07:27:14.237Z,19.50
2022-12-01T07:29:40.956Z,19.20
2022-12-01T07:32:08.976Z,20.48
2022-12-01T07:34:35.684Z,21.02
2022-12-01T07:37:02.356Z,20.48
2022-12-01T07:39:29.059Z,19.10
2022-12-01T07:41:55.772Z,20.65
2022-12-01T07:44:22.532Z,18.33
2022-12-01T07:46:49.248Z,19.95
2022-12-01T07:49:17.281Z,20.25
2022-12-01T07:51:44.142Z,21.77
2022-12-01T07:54:11.316Z,17.92
2022-12-01T07:56:38.050Z,19.63
2022-12-01T07:59:04.871Z,20.17
2022-12-01T08:01:31.944Z,22.73
2022-12-01T08:03:59.638Z,21.05
2022-12-01T08:06:27.720Z,21.08
2022-12-01T08:08:54.722Z,22.30
2022-12-01T08:11:23.219Z,20.50
2022-12-01T08:13:50.633Z,19.70
2022-12-01T08:16:19.157Z,19.77
2022-12-01T08:18:46.128Z,20.15
2022-12-01T08:21:14.937Z,20.55
2022-12-01T08:23:43.280Z,19.45
2022-12-01T08:26:12.763Z,17.67
2022-12-01T08:28:42.573Z,21.67
2022-12-01T08:31:12.187Z,22.15
2022-12-01T08:33:39.041Z,20.48
2022-12-01T08:36:06.508Z,20.83
2022-12-01T08:38:33.633Z,22.27
2022-12-01T08:41:02.259Z,19.75
2022-12-01T08:43:56.104Z,17.58
2022-12-01T08:46:16.173Z,18.98
2022-12-01T08:48:42.980Z,19.98
2022-12-01T08:51:11.288Z,18.63
2022-12-01T08:53:45.189Z,20.05
2022-12-01T08:56:16.198Z,21.80
2022-12-01T08:58:43.263Z,19.85
2022-12-01T09:01:13.280Z,22.50
2022-12-01T09:03:40.841Z,21.40
2022-12-01T09:06:09.756Z,17.08
2022-12-01T09:08:37.089Z,20.05
2022-12-01T09:11:06.167Z,19.20
2022-12-01T09:16:03.245Z,13.20
2022-12-01T09:18:30.721Z,14.43
2022-12-01T09:20:58.067Z,17.65
2022-12-01T09:23:25.274Z,21.05
2022-12-01T09:25:53.031Z,19.65
2022-12-01T09:28:19.882Z,20.17
2022-12-01T09:30:48.007Z,19.80
2022-12-01T09:33:14.709Z,22.00
2022-12-01T09:35:41.423Z,21.80
2022-12-01T09:38:08.175Z,19.33
2022-12-01T09:40:37.245Z,17.75
2022-12-01T09:45:37.134Z,17.77
2022-12-01T09:48:07.633Z,19.75
2022-12-01T09:50:34.785Z,19.75
2022-12-01T09:53:06.821Z,20.17
2022-12-01T09:55:34.597Z,20.67
2022-12-01T09:58:04.059Z,22.98
2022-12-01T10:00:35.344Z,19.83
2022-12-01T10:03:22.338Z,23.80
2022-12-01T10:06:25.099Z,18.83
2022-12-01T10:08:52.219Z,20.17
2022-12-01T10:11:28.193Z,20.45
2022-12-01T10:13:54.972Z,22.85
2022-12-01T10:16:28.936Z,19.70
2022-12-01T10:19:07.716Z,19.27
2022-12-01T10:21:45.735Z,22.33
2022-12-01T10:24:28.535Z,26.73
2022-12-01T10:27:04.431Z,24.08
2022-12-01T10:29:37.904Z,24.55
2022-12-01T10:32:11.300Z,22.73
2022-12-01T10:34:42.073Z,20.05
2022-12-01T10:37:16.153Z,20.60
2022-12-01T10:39:46.043Z,23.83
2022-12-01T10:42:27.609Z,19.55
2022-12-01T10:44:56.221Z,20.75
2022-12-01T10:47:24.728Z,21.30
2022-12-01T10:49:53.134Z,21.52
2022-12-01T10:52:33.532Z,30.63
2022-12-01T10:55:00.649Z,44.55
2022-12-01T10:57:29.875Z,27.70
2022-12-01T10:59:59.533Z,19.95
2022-12-01T11:02:29.243Z,24.23
2022-12-01T11:04:59.117Z,21.70
2022-12-01T11:07:28.290Z,23.80
2022-12-01T11:10:05.862Z,22.15
2022-12-01T11:12:33.560Z,21.30
2022-12-01T11:15:01.253Z,23.42
2022-12-01T11:17:34.555Z,23.27
2022-12-01T11:20:25.988Z,20.00
2022-12-01T11:22:52.877Z,20.23
2022-12-01T11:25:21.239Z,21.33
2022-12-01T11:27:50.732Z,22.25
2022-12-01T11:30:23.225Z,19.90
2022-12-01T11:32:53.121Z,22.20
2022-12-01T11:35:23.498Z,20.42
2022-12-01T11:38:29.389Z,19.42
2022-12-01T11:40:48.144Z,22.77
2022-12-01T11:43:23.921Z,21.55
2022-12-01T11:45:51.861Z,22.25
2022-12-01T11:48:25.027Z,23.30
2022-12-01T11:51:04.891Z,23.20
2022-12-01T11:53:33.694Z,17.98
2022-12-01T11:56:16.037Z,20.33
2022-12-01T11:58:44.060Z,20.63
2022-12-01T12:01:22.196Z,20.77
2022-12-01T12:03:58.495Z,20.17
2022-12-01T12:06:40.617Z,21.70
2022-12-01T12:09:22.501Z,19.30
2022-12-01T12:11:57.076Z,21.73
2022-12-01T12:14:36.167Z,25.00
2022-12-01T12:17:21.064Z,22.58
2022-12-01T12:20:11.934Z,18.15
2022-12-01T12:22:55.527Z,22.83
2022-12-01T12:25:29.995Z,22.75
2022-12-01T12:28:10.343Z,25.65
2022-12-01T12:30:42.448Z,26.17
2022-12-01T12:33:30.352Z,23.17
2022-12-01T12:36:06.943Z,22.90
2022-12-01T12:38:48.248Z,22.38
2022-12-01T12:41:24.115Z,21.80
2022-12-01T12:44:08.178Z,17.63
2022-12-01T12:46:42.165Z,22.02
2022-12-01T12:49:24.195Z,22.40
2022-12-01T12:51:55.477Z,20.67
2022-12-01T12:54:28.865Z,16.17
2022-12-01T12:57:02.072Z,15.75
2022-12-01T12:59:36.963Z,15.82
2022-12-01T13:02:11.186Z,21.23
2022-12-01T13:04:42.596Z,20.50
2022-12-01T13:07:26.778Z,20.42
2022-12-01T13:10:00.811Z,20.10
2022-12-01T13:12:31.162Z,18.65
2022-12-01T13:15:03.793Z,19.00
2022-12-01T13:17:36.280Z,20.63
2022-12-01T13:20:04.030Z,21.67
2022-12-01T13:22:33.662Z,20.67
2022-12-01T13:25:03.372Z,21.42
2022-12-01T13:27:33.091Z,18.17
2022-12-01T13:30:00.439Z,19.38
2022-12-01T13:32:32.602Z,19.30
2022-12-01T13:35:00.437Z,18.88
2022-12-01T13:37:29.576Z,19.92
2022-12-01T13:42:35.425Z,19.88
2022-12-01T13:47:47.380Z,18.05
2022-12-01T13:50:53.784Z,18.25
2022-12-01T13:53:31.624Z,18.20
2022-12-01T13:56:04.188Z,18.80
2022-12-01T13:58:46.841Z,21.35
2022-12-01T14:01:44.535Z,22.33
2022-12-01T14:04:32.522Z,26.10
2022-12-01T14:07:40.899Z,25.80
2022-12-01T14:10:16.381Z,27.55
2022-12-01T14:12:45.421Z,32.17
2022-12-01T14:18:00.199Z,33.37
2022-12-01T14:20:27.924Z,38.20
2022-12-01T14:23:14.555Z,61.75
2022-12-01T14:25:42.105Z,41.20
2022-12-01T14:28:15.200Z,36.70
2022-12-01T14:31:05.326Z,43.60
2022-12-01T14:33:52.596Z,32.33
2022-12-01T14:36:42.051Z,26.58
2022-12-01T14:39:14.244Z,41.08
2022-12-01T14:41:46.331Z,32.13
2022-12-01T14:44:23.021Z,30.92
2022-12-01T14:46:57.703Z,31.25
2022-12-01T14:49:28.087Z,28.90
2022-12-01T14:52:00.488Z,23.08
2022-12-01T14:54:32.265Z,19.85
2022-12-01T14:57:06.846Z,22.58
2022-12-01T14:59:35.891Z,49.08
2022-12-01T15:02:06.742Z,43.67
2022-12-01T15:04:34.165Z,53.22
2022-12-01T15:07:00.915Z,33.05
2022-12-01T15:09:35.607Z,25.50
2022-12-01T15:12:04.589Z,22.98
2022-12-01T15:14:33.820Z,23.25
2022-12-01T15:17:01.362Z,21.58
2022-12-01T15:19:35.257Z,25.10
2022-12-01T15:22:11.917Z,21.88
2022-12-01T15:24:38.794Z,24.63
2022-12-01T15:27:23.756Z,20.08
2022-12-01T15:29:50.877Z,20.95
2022-12-01T15:32:19.425Z,23.20
2022-12-01T15:34:50.762Z,23.40
2022-12-01T15:37:19.803Z,22.55
2022-12-01T15:39:48.940Z,26.35
2022-12-01T15:42:23.326Z,24.85
2022-12-01T15:45:00.314Z,22.85
2022-12-01T15:47:33.038Z,19.98
2022-12-01T15:50:01.522Z,24.73
2022-12-01T15:52:28.808Z,29.73
2022-12-01T15:54:57.451Z,24.88
2022-12-01T15:57:24.575Z,20.17
2022-12-01T15:59:53.868Z,20.95
2022-12-01T16:02:27.847Z,27.40
2022-12-01T16:05:04.704Z,20.17
2022-12-01T16:08:04.422Z,19.70
2022-12-01T16:10:29.868Z,19.17
2022-12-01T16:13:29.760Z,32.50
2022-12-01T16:15:56.519Z,21.30
2022-12-01T16:18:29.416Z,22.35
2022-12-01T16:21:02.563Z,28.70
2022-12-01T16:23:29.650Z,26.33
2022-12-01T16:26:01.719Z,23.83
2022-12-01T16:28:33.102Z,26.08
2022-12-01T16:30:59.951Z,22.70
2022-12-01T16:33:28.416Z,21.73
2022-12-01T16:35:58.813Z,20.70
2022-12-01T16:38:28.216Z,20.02
2022-12-01T16:40:57.144Z,18.73
2022-12-01T16:43:25.668Z,18.70
2022-12-01T16:45:59.145Z,21.20
2022-12-01T16:48:25.952Z,21.73
2022-12-01T16:50:53.544Z,20.77
2022-12-01T16:53:21.769Z,20.17
2022-12-01T16:55:51.784Z,19.10
2022-12-01T16:58:18.883Z,19.45
2022-12-01T17:00:45.771Z,16.70
2022-12-01T17:03:14.911Z,19.10
2022-12-01T17:05:42.072Z,20.92
2022-12-01T17:08:08.971Z,19.73
2022-12-01T17:10:39.625Z,19.75
2022-12-01T17:13:06.416Z,19.98
2022-12-01T17:15:33.238Z,20.88
2022-12-01T17:18:00.232Z,21.80
2022-12-01T17:20:27.028Z,25.42
2022-12-01T17:22:53.778Z,35.50
2022-12-01T17:25:20.515Z,36.90
2022-12-01T17:27:48.577Z,49.67
2022-12-01T17:30:15.432Z,60.13
2022-12-01T17:32:42.137Z,31.55
2022-12-01T17:35:09.584Z,27.23
2022-12-01T17:37:36.366Z,28.77
2022-12-01T17:40:03.345Z,21.38
2022-12-01T17:42:30.793Z,17.45
2022-12-01T17:44:58.855Z,23.17
2022-12-01T17:47:26.125Z,25.10
2022-12-01T17:49:52.803Z,22.63
2022-12-01T17:52:22.191Z,21.50
2022-12-01T17:54:52.431Z,17.85
2022-12-01T17:57:19.311Z,21.27
2022-12-01T17:59:46.013Z,21.83
2022-12-01T18:02:14.095Z,19.67
2022-12-01T18:04:40.906Z,24.93
2022-12-01T18:07:07.764Z,22.45
2022-12-01T18:09:34.724Z,21.88
2022-12-01T18:12:01.432Z,21.70
2022-12-01T18:14:28.140Z,19.00
2022-12-01T18:16:54.871Z,21.65
2022-12-01T18:19:22.888Z,23.10
2022-12-01T18:21:49.605Z,25.67
2022-12-01T18:24:16.352Z,25.30
2022-12-01T18:26:43.072Z,26.02
2022-12-01T18:29:12.600Z,22.80
2022-12-01T18:31:39.467Z,26.63
2022-12-01T18:34:06.386Z,26.17
2022-12-01T18:36:36.710Z,28.20
2022-12-01T18:39:05.336Z,29.95
2022-12-01T18:41:32.081Z,27.30
2022-12-01T18:43:58.817Z,24.80
2022-12-01T18:46:25.832Z,26.13
2022-12-01T18:48:54.565Z,25.25
2022-12-01T18:51:21.493Z,22.92
2022-12-01T18:53:53.513Z,22.25
2022-12-01T18:56:20.301Z,23.60
2022-12-01T18:58:47.070Z,21.95
2022-12-01T19:01:19.865Z,21.42
2022-12-01T19:03:46.783Z,22.10
2022-12-01T19:06:13.597Z,21.05
2022-12-01T19:08:40.421Z,19.38
2022-12-01T19:11:08.940Z,21.10
2022-12-01T19:13:36.501Z,20.02
2022-12-01T19:16:06.851Z,22.30
2022-12-01T19:18:34.562Z,20.73
2022-12-01T19:21:01.878Z,21.15
2022-12-01T19:23:28.722Z,22.10
2022-12-01T19:25:55.509Z,18.98
2022-12-01T19:28:23.609Z,18.60
2022-12-01T19:30:50.851Z,22.43
2022-12-01T19:33:17.707Z,21.80
2022-12-01T19:35:44.386Z,21.10
2022-12-01T19:38:11.337Z,21.45
2022-12-01T19:40:38.363Z,20.13
2022-12-01T19:43:06.424Z,20.67
2022-12-01T19:45:37.180Z,22.17
2022-12-01T19:48:04.133Z,21.40
2022-12-01T19:50:34.132Z,22.23
2022-12-01T19:53:00.906Z,21.25
2022-12-01T19:55:27.717Z,22.52
2022-12-01T19:57:54.430Z,21.73
2022-12-01T20:00:21.305Z,15.40
2022-12-01T20:02:49.690Z,20.00
2022-12-01T20:05:16.566Z,21.08
2022-12-01T20:07:43.412Z,19.70
2022-12-01T20:10:10.881Z,19.92
2022-12-01T20:12:37.618Z,18.73
2022-12-01T20:15:05.443Z,17.83
2022-12-01T20:17:35.273Z,19.02
2022-12-01T20:20:03.660Z,17.33
2022-12-01T20:22:31.630Z,16.83
2022-12-01T20:24:58.394Z,20.48
2022-12-01T20:27:25.197Z,17.98
2022-12-01T20:29:51.956Z,19.50
2022-12-01T20:32:23.289Z,19.15
2022-12-01T20:34:51.060Z,16.85
2022-12-01T20:37:19.384Z,20.25
2022-12-01T20:39:46.115Z,20.23
2022-12-01T20:42:12.798Z,19.25
2022-12-01T20:44:39.632Z,19.52
2022-12-01T20:47:06.342Z,19.73
2022-12-01T20:49:33.071Z,20.13
2022-12-01T20:51:59.763Z,20.23
2022-12-01T20:54:29.475Z,19.92
2022-12-01T20:56:56.921Z,19.00
2022-12-01T20:59:23.749Z,22.00
2022-12-01T21:01:50.441Z,18.35
2022-12-01T21:04:17.210Z,20.33
2022-12-01T21:06:44.002Z,20.00
2022-12-01T21:09:10.863Z,18.13
2022-12-01T21:11:46.459Z,20.15
2022-12-01T21:14:16.256Z,21.63
2022-12-01T21:16:45.356Z,22.15
2022-12-01T21:19:16.839Z,20.90
2022-12-01T21:21:43.564Z,21.90
2022-12-01T21:24:13.156Z,23.92
2022-12-01T21:26:45.912Z,22.92
2022-12-01T21:29:19.200Z,20.48
2022-12-01T21:31:47.352Z,24.05
2022-12-01T21:34:18.066Z,23.53
2022-12-01T21:36:46.725Z,22.55
2022-12-01T21:39:15.594Z,23.38
2022-12-01T21:41:43.756Z,21.88
2022-12-01T21:44:14.398Z,22.30
2022-12-01T21:46:41.289Z,19.30
2022-12-01T21:49:12.911Z,25.45
2022-12-01T21:51:39.661Z,22.83
2022-12-01T21:54:10.253Z,24.40
2022-12-01T21:56:36.925Z,22.75
2022-12-01T21:59:13.571Z,24.05
2022-12-01T22:01:40.649Z,23.17
2022-12-01T22:04:15.807Z,21.27
2022-12-01T22:06:46.245Z,23.42
2022-12-01T22:09:19.324Z,23.35
2022-12-01T22:11:50.757Z,22.05
2022-12-01T22:14:20.617Z,22.65
2022-12-01T22:16:51.260Z,21.17
2022-12-01T22:19:25.769Z,22.55
2022-12-01T22:21:59.333Z,25.10
2022-12-01T22:24:27.998Z,25.80
2022-12-01T22:27:25.077Z,25.30
2022-12-01T22:29:57.732Z,25.70
2022-12-01T22:32:36.907Z,26.33
2022-12-01T22:35:33.149Z,26.85
2022-12-01T22:38:20.282Z,24.67
2022-12-01T22:40:53.884Z,24.15
2022-12-01T22:43:26.971Z,25.30
2022-12-01T22:46:07.272Z,24.42
2022-12-01T22:48:37.301Z,30.30
2022-12-01T22:51:20.808Z,29.67
2022-12-01T22:53:48.097Z,30.52
2022-12-01T22:56:29.044Z,26.50
2022-12-01T22:58:56.150Z,30.10
2022-12-01T23:01:26.565Z,26.73
2022-12-01T23:03:59.593Z,24.35
2022-12-01T23:07:01.394Z,30.58
2022-12-01T23:09:34.136Z,27.08
2022-12-01T23:12:15.601Z,28.77
2022-12-01T23:14:45.689Z,26.52
2022-12-01T23:17:19.197Z,27.63
2022-12-01T23:19:46.394Z,28.15
2022-12-01T23:22:15.231Z,21.45
2022-12-01T23:24:42.071Z,27.25
2022-12-01T23:27:08.817Z,26.58
2022-12-01T23:29:36.400Z,25.50
2022-12-01T23:32:03.269Z,27.42
2022-12-01T23:34:31.282Z,30.40
2022-12-01T23:36:58.071Z,25.10
2022-12-01T23:39:31.100Z,29.25
2022-12-01T23:41:58.619Z,27.02
2022-12-01T23:44:33.355Z,26.75
2022-12-01T23:47:00.397Z,28.00
2022-12-01T23:49:31.946Z,27.88
2022-12-01T23:52:01.972Z,32.33
2022-12-01T23:54:31.271Z,26.05
2022-12-01T23:57:02.488Z,28.80
2022-12-01T23:59:30.426Z,28.88
